Pagrindinis puslapis
METAR-TAF:

METAR-TAF

Oro uostai :

Rovaniemis, Suomija

platuma: 66-34N, ilguma: 025-50E, Aukštis: 197 m

Dabartinis oras

Ataskaita buvo paskelbta 1 valandą ir 27 minutes, ne 12:50 UTC
Vėjas 5 kt nuo kintamojo kryptimis
Temperatūra 21°C
Drėgmė 33%
Slėgis 1024 hPa
Matomumas 10 km arba daugiau
nėra debesų žemiau 1500 m ir nėra kamuolinių lietaus debesų

METAR: EFRO 011250Z AUTO VRB05KT CAVOK 21/04 Q1024

Laikas: 17:17 (14:17 UTC)

Prognozė

Ataskaita buvo paskelbta 2 valandos ir 54 minutes, ne 11:23 UTC
Prognozė galioja nuo 01 metu 12 UTC su 02 metu 12 UTC
Vėjas 6 kt iš Šiaurės
Matomumas 10 km arba daugiau
nėra debesų žemiau 1500 m ir nėra kamuolinių lietaus debesų
Tapsmas
nuo 02 metu 08 UTC su 02 metu 10 UTC
Vėjas 12 kt iš Pietų/Pietvakarių
Laikinai
nuo 02 metu 10 UTC su 02 metu 12 UTC
Vėjas 15 kt iš Pietų/Pietvakarių su gūsio iki 25 kt

TAF: EFRO 011123Z 0112/0212 35006KT CAVOK BECMG 0208/0210 20012KT TEMPO 0210/0212 20015G25KT

Orai ataskaitas ir orų prognozės (METAR, TAF).

turimą stotys yra geltonos ir raudonos taškus žemėlapyje.

Perkelti pele per norėdami pamatyti stoties vardą.

Tada spustelėkite, norėdami matyti oro stebėjimo ir prognozės.

Norėdami pakeisti žemėlapį: spustelėkite ant žalios mygtukų su juodo kryžiaus žemyn,; žalią mygtuką su brūkšneliu, jei norite nutolinti; arba žalių rodyklių gretimoms žemėlapius.


METAR-TAF: